Time;durP1;ratioP1;P1;durP2;ratioP2;P2;SDS_P1;SDS_P2;PMS_P1;PMS_P2;Temp;Humidity;BMP_temperature;BMP_pressure;BME280_temperature;BME280_humidity;BME280_pressure;Samples;Min_cycle;Max_cycle;Signal;HPM_P1;HPM_P2
2022/05/30 00:00:18;;;;;;;1.95;1.20;;;6.50;99.90;;;;;;5012516;28;20084;-72
2022/05/30 00:02:43;;;;;;;5.45;1.40;;;6.40;99.90;;;;;;5012549;28;20117;-72
2022/05/30 00:05:11;;;;;;;4.63;1.70;;;6.30;99.90;;;;;;5012773;28;20105;-72
2022/05/30 00:07:37;;;;;;;3.03;1.48;;;6.30;99.90;;;;;;5012523;28;20040;-72
2022/05/30 00:10:05;;;;;;;6.95;1.52;;;6.20;99.90;;;;;;5012556;28;20030;-72
2022/05/30 00:12:30;;;;;;;4.25;1.42;;;6.00;99.90;;;;;;5012465;28;20351;-72
2022/05/30 00:14:56;;;;;;;7.00;2.88;;;6.00;99.90;;;;;;5012480;28;20037;-72
2022/05/30 00:17:21;;;;;;;4.28;1.35;;;6.00;99.90;;;;;;5012610;28;20031;-72
2022/05/30 00:19:47;;;;;;;3.00;1.10;;;6.00;99.90;;;;;;5012497;28;20080;-72
2022/05/30 00:22:14;;;;;;;3.42;1.58;;;5.90;99.90;;;;;;5012452;28;20026;-72
2022/05/30 00:24:40;;;;;;;4.75;1.60;;;6.00;99.90;;;;;;5012737;28;20397;-72
2022/05/30 00:27:06;;;;;;;3.47;1.25;;;5.90;99.90;;;;;;5012507;28;20029;-72
2022/05/30 00:29:32;;;;;;;3.55;1.17;;;5.80;99.90;;;;;;5012231;28;20026;-72
2022/05/30 00:31:58;;;;;;;6.63;1.13;;;5.70;99.90;;;;;;5012676;28;20044;-72
2022/05/30 00:34:24;;;;;;;3.60;1.27;;;5.60;99.90;;;;;;5012445;28;20022;-72
2022/05/30 00:36:50;;;;;;;2.80;1.20;;;5.50;99.90;;;;;;5012734;28;20374;-71
2022/05/30 00:39:15;;;;;;;1.85;1.10;;;5.30;99.90;;;;;;5016271;28;20029;-72
2022/05/30 00:41:41;;;;;;;3.08;1.20;;;5.20;99.90;;;;;;5016277;28;20030;-72
2022/05/30 00:44:07;;;;;;;3.95;1.20;;;5.20;99.90;;;;;;5016072;28;20041;-72
2022/05/30 00:46:32;;;;;;;2.22;1.30;;;5.10;99.90;;;;;;5016239;28;20421;-71
2022/05/30 00:49:02;;;;;;;3.38;1.10;;;5.00;99.90;;;;;;5016110;28;20097;-72
2022/05/30 00:51:33;;;;;;;2.80;1.33;;;4.90;99.90;;;;;;5016064;28;20049;-72
2022/05/30 00:54:01;;;;;;;2.88;1.30;;;4.80;99.90;;;;;;5016058;28;20028;-72
2022/05/30 00:56:31;;;;;;;3.10;1.42;;;4.80;99.90;;;;;;5015986;28;20028;-72
2022/05/30 00:58:57;;;;;;;;;;;4.70;99.90;;;;;;5016444;28;20076;-71
2022/05/30 01:01:23;;;;;;;4.07;1.40;;;4.70;99.90;;;;;;5015786;28;20075;-72
2022/05/30 01:06:41;;;;;;;2.45;1.55;;;4.70;99.90;;;;;;4996304;28;20041;-72
2022/05/30 01:09:16;;;;;;;3.13;1.58;;;4.60;99.90;;;;;;4996168;28;20517;-72
2022/05/30 01:11:52;;;;;;;6.30;1.85;;;4.50;99.90;;;;;;4995980;28;20041;-72
2022/05/30 01:14:19;;;;;;;4.60;1.50;;;4.50;99.90;;;;;;4996091;28;20057;-72
2022/05/30 01:16:45;;;;;;;4.50;1.52;;;4.30;99.90;;;;;;4996047;28;20048;-72
2022/05/30 01:19:28;;;;;;;4.28;2.10;;;4.40;99.90;;;;;;4996192;28;20015;-72
2022/05/30 01:22:08;;;;;;;3.05;1.67;;;4.30;99.90;;;;;;5015250;28;20018;-72
2022/05/30 01:24:56;;;;;;;2.30;1.58;;;4.40;99.90;;;;;;5015562;28;20069;-72
2022/05/30 01:27:33;;;;;;;4.70;1.88;;;4.40;99.90;;;;;;5015533;28;20053;-72
2022/05/30 01:30:07;;;;;;;4.18;1.48;;;4.40;99.90;;;;;;5015328;28;20034;-72
2022/05/30 01:32:33;;;;;;;2.88;1.50;;;4.50;99.90;;;;;;5015296;28;20033;-72
2022/05/30 01:34:58;;;;;;;4.60;1.75;;;4.60;99.90;;;;;;5015201;28;20029;-73
2022/05/30 01:37:24;;;;;;;6.05;1.90;;;4.70;99.90;;;;;;5015290;28;20025;-71
2022/05/30 01:39:50;;;;;;;1.98;1.25;;;5.00;99.90;;;;;;5015121;28;20022;-72
2022/05/30 01:42:16;;;;;;;4.70;1.70;;;5.40;99.90;;;;;;5015089;28;20401;-72
2022/05/30 01:44:42;;;;;;;2.92;1.40;;;5.60;99.90;;;;;;5015086;28;20492;-72
2022/05/30 01:47:07;;;;;;;1.98;1.15;;;5.70;99.90;;;;;;5015310;28;20392;-72
2022/05/30 01:49:34;;;;;;;1.80;0.70;;;5.80;99.90;;;;;;5014407;28;20026;-71
2022/05/30 01:51:59;;;;;;;3.88;0.95;;;5.90;99.90;;;;;;5014939;28;20045;-72
2022/05/30 01:54:25;;;;;;;3.22;1.02;;;6.10;99.90;;;;;;5014894;28;20022;-72
2022/05/30 01:56:51;;;;;;;2.20;0.68;;;6.30;99.90;;;;;;5014828;28;20086;-72
2022/05/30 01:59:16;;;;;;;1.00;0.70;;;6.50;99.90;;;;;;5014857;28;20040;-73
2022/05/30 02:01:44;;;;;;;3.83;0.80;;;6.60;99.90;;;;;;5014512;28;20046;-73
2022/05/30 02:04:11;;;;;;;2.78;0.82;;;6.70;99.90;;;;;;5014996;28;20022;-73
2022/05/30 02:06:36;;;;;;;2.25;0.77;;;6.80;99.90;;;;;;5014643;28;20026;-73
2022/05/30 02:09:03;;;;;;;4.43;0.73;;;6.90;99.90;;;;;;5014648;28;20029;-73
2022/05/30 02:11:29;;;;;;;2.70;0.80;;;6.90;99.90;;;;;;5014507;28;20394;-73
2022/05/30 02:13:54;;;;;;;4.45;1.27;;;7.00;99.90;;;;;;5014596;28;20514;-73
2022/05/30 02:19:05;;;;;;;1.02;0.70;;;7.10;99.90;;;;;;5014546;28;20076;-73
2022/05/30 02:21:34;;;;;;;2.30;0.70;;;7.10;99.90;;;;;;5014370;28;20018;-73
2022/05/30 02:24:01;;;;;;;2.20;0.93;;;7.10;99.90;;;;;;5014538;28;20022;-73
2022/05/30 02:26:26;;;;;;;1.65;1.00;;;7.00;99.90;;;;;;5014376;28;20693;-73
2022/05/30 02:28:52;;;;;;;1.77;0.70;;;7.00;99.90;;;;;;5014167;28;20058;-72
2022/05/30 02:31:18;;;;;;;1.88;0.65;;;7.00;99.90;;;;;;5014283;28;20106;-73
2022/05/30 02:36:39;;;;;;;2.92;0.85;;;7.00;99.90;;;;;;5014193;28;20109;-73
2022/05/30 02:39:10;;;;;;;2.97;0.90;;;7.00;99.90;;;;;;5014074;28;20022;-73
2022/05/30 02:41:36;;;;;;;;;;;7.10;99.90;;;;;;5014527;28;20021;-73
2022/05/30 02:44:02;;;;;;;3.10;0.70;;;7.10;99.90;;;;;;5013889;28;19913;-73
2022/05/30 02:46:28;;;;;;;3.40;0.93;;;7.10;99.90;;;;;;5013887;28;20030;-73
2022/05/30 02:48:53;;;;;;;3.63;0.88;;;7.20;99.90;;;;;;5013922;28;20026;-73
2022/05/30 02:51:19;;;;;;;1.35;0.68;;;7.20;99.90;;;;;;5013751;28;20355;-73
2022/05/30 02:53:45;;;;;;;2.53;0.88;;;7.10;99.90;;;;;;5013892;28;20041;-73
2022/05/30 02:56:12;;;;;;;2.15;1.40;;;7.10;99.90;;;;;;5013640;28;20385;-73
2022/05/30 02:58:37;;;;;;;1.38;0.82;;;7.10;99.90;;;;;;5012433;28;20014;-73
2022/05/30 03:01:04;;;;;;;2.70;0.98;;;7.20;99.90;;;;;;4993037;28;20046;-73
2022/05/30 03:03:30;;;;;;;2.17;0.95;;;7.20;99.90;;;;;;4993776;28;20027;-73
2022/05/30 03:05:55;;;;;;;2.45;1.10;;;7.20;99.90;;;;;;4993854;28;20034;-73
2022/05/30 03:08:21;;;;;;;4.50;1.15;;;7.20;99.90;;;;;;4993791;28;20037;-73
2022/05/30 03:10:47;;;;;;;2.33;0.93;;;7.30;99.90;;;;;;4993793;28;20477;-72
2022/05/30 03:13:12;;;;;;;4.35;1.15;;;7.20;99.90;;;;;;4993807;28;20048;-73
2022/05/30 03:15:38;;;;;;;3.70;1.00;;;7.30;99.90;;;;;;4993646;28;20029;-73
2022/05/30 03:18:04;;;;;;;3.28;1.35;;;7.30;99.90;;;;;;4993672;28;20080;-73
2022/05/30 03:20:30;;;;;;;2.25;1.17;;;7.40;99.90;;;;;;4993745;28;20485;-73
2022/05/30 03:22:56;;;;;;;3.83;1.15;;;7.50;99.90;;;;;;4993525;28;20032;-73
2022/05/30 03:25:22;;;;;;;4.13;1.10;;;7.50;99.90;;;;;;4993878;28;20470;-73
2022/05/30 03:27:47;;;;;;;2.38;1.20;;;7.60;99.90;;;;;;4993595;28;20058;-73
2022/05/30 03:30:14;;;;;;;2.92;1.50;;;7.70;99.90;;;;;;4993759;28;20022;-73
2022/05/30 03:32:41;;;;;;;6.10;1.65;;;7.70;99.90;;;;;;4993713;28;20496;-72
2022/05/30 03:35:07;;;;;;;3.97;1.33;;;7.80;99.90;;;;;;4993884;28;20458;-73
2022/05/30 03:37:36;;;;;;;3.42;1.23;;;7.80;99.90;;;;;;4993183;28;20026;-73
2022/05/30 03:40:04;;;;;;;3.30;1.50;;;7.80;99.90;;;;;;4992980;28;20026;-73
2022/05/30 03:42:29;;;;;;;3.55;1.30;;;7.90;99.90;;;;;;4988254;28;20736;-73
2022/05/30 03:44:55;;;;;;;3.15;1.20;;;7.90;99.90;;;;;;4973928;28;20114;-73
2022/05/30 03:47:20;;;;;;;2.70;1.25;;;8.00;99.90;;;;;;4973831;28;20014;-73
2022/05/30 03:49:46;;;;;;;2.33;1.15;;;8.00;99.90;;;;;;4973965;28;20023;-73
2022/05/30 03:52:14;;;;;;;1.38;1.08;;;8.00;99.90;;;;;;4973806;28;20082;-72
2022/05/30 03:54:39;;;;;;;5.28;1.42;;;8.00;99.90;;;;;;4974163;28;20466;-73
2022/05/30 03:57:05;;;;;;;1.55;1.20;;;8.10;99.90;;;;;;4973964;28;20030;-73
2022/05/30 03:59:31;;;;;;;3.08;1.40;;;8.10;99.90;;;;;;4974084;28;20118;-73
2022/05/30 04:01:56;;;;;;;4.80;1.25;;;8.10;99.90;;;;;;4973239;28;20063;-73
2022/05/30 04:04:22;;;;;;;2.28;1.20;;;8.20;99.90;;;;;;4973686;28;20023;-72
2022/05/30 04:06:48;;;;;;;2.72;1.25;;;8.30;99.90;;;;;;4973555;28;20027;-73
2022/05/30 04:09:14;;;;;;;4.75;1.35;;;8.30;99.90;;;;;;4973643;28;20080;-73
2022/05/30 04:11:39;;;;;;;3.67;1.30;;;8.30;99.90;;;;;;4973333;28;20023;-73
2022/05/30 04:14:05;;;;;;;1.58;1.30;;;8.30;99.90;;;;;;4973610;28;20031;-74
2022/05/30 04:16:30;;;;;;;4.72;1.50;;;8.40;99.90;;;;;;4973557;28;20055;-74
2022/05/30 04:18:56;;;;;;;3.20;2.00;;;8.50;99.90;;;;;;4973223;28;20454;-73
2022/05/30 04:21:22;;;;;;;3.72;1.30;;;8.60;99.90;;;;;;5012209;28;20149;-74
2022/05/30 04:23:48;;;;;;;3.40;1.50;;;8.70;99.90;;;;;;5012643;28;20030;-73
2022/05/30 04:26:15;;;;;;;1.92;1.13;;;8.80;99.90;;;;;;5012543;28;20037;-73
2022/05/30 04:28:41;;;;;;;5.90;1.30;;;9.00;99.90;;;;;;5012228;28;20018;-73
2022/05/30 04:31:10;;;;;;;3.20;1.60;;;9.10;99.90;;;;;;5012406;28;20084;-73
2022/05/30 04:33:36;;;;;;;3.40;1.30;;;9.40;99.90;;;;;;5012589;28;20049;-73
2022/05/30 04:36:05;;;;;;;2.22;1.00;;;12.40;99.90;;;;;;5012426;28;20054;-73
2022/05/30 04:38:31;;;;;;;2.22;1.13;;;14.70;99.90;;;;;;4973267;28;20122;-73
2022/05/30 04:40:57;;;;;;;3.35;1.00;;;17.10;99.90;;;;;;4973193;28;20114;-74
2022/05/30 04:43:23;;;;;;;1.73;1.08;;;19.10;99.90;;;;;;4980463;28;20030;-74
2022/05/30 04:46:22;;;;;;;1.25;0.73;;;20.40;99.90;;;;;;4992998;28;20438;-73
2022/05/30 04:48:48;;;;;;;2.58;0.77;;;21.40;99.90;;;;;;5000823;28;20034;-73
2022/05/30 04:51:14;;;;;;;1.00;0.50;;;21.70;99.90;;;;;;4996543;28;20042;-73
2022/05/30 04:53:45;;;;;;;1.13;0.60;;;19.60;99.90;;;;;;4994892;28;20040;-74
2022/05/30 04:56:11;;;;;;;1.85;0.50;;;21.60;99.90;;;;;;4992606;28;20058;-74
2022/05/30 04:58:37;;;;;;;0.55;0.20;;;21.20;99.90;;;;;;4992353;28;20062;-73
2022/05/30 05:01:06;;;;;;;0.30;0.30;;;18.70;99.90;;;;;;4974617;28;20051;-74
2022/05/30 05:03:34;;;;;;;1.58;0.30;;;17.60;99.90;;;;;;4980694;28;20402;-72
2022/05/30 05:06:05;;;;;;;0.70;0.30;;;21.20;99.90;;;;;;4993420;28;20415;-72
2022/05/30 05:08:55;;;;;;;1.50;0.38;;;24.60;99.90;;;;;;4992505;28;20019;-72
2022/05/30 05:11:27;;;;;;;1.02;0.20;;;26.50;99.90;;;;;;4973105;28;20030;-72
2022/05/30 05:13:53;;;;;;;0.30;0.20;;;27.50;99.90;;;;;;4972908;28;20023;-72
2022/05/30 05:16:21;;;;;;;1.17;0.20;;;28.60;99.90;;;;;;4972998;28;20344;-72
2022/05/30 05:18:47;;;;;;;0.98;0.20;;;29.50;99.90;;;;;;4972869;28;20041;-71
2022/05/30 05:21:34;;;;;;;2.38;0.28;;;29.80;99.90;;;;;;4972748;28;20026;-72
2022/05/30 05:24:01;;;;;;;1.17;0.30;;;31.50;99.90;;;;;;5013792;28;20026;-72
2022/05/30 05:26:26;;;;;;;1.42;0.30;;;31.30;99.90;;;;;;5015392;28;20026;-72
2022/05/30 05:28:53;;;;;;;0.93;0.20;;;29.90;99.90;;;;;;5014784;28;20032;-72
2022/05/30 05:31:27;;;;;;;0.63;0.30;;;28.60;99.90;;;;;;5014882;28;20026;-72
2022/05/30 05:33:54;;;;;;;0.40;0.20;;;25.90;99.90;;;;;;5015381;28;20026;-72
2022/05/30 05:36:28;;;;;;;0.98;0.30;;;24.30;99.90;;;;;;5015319;28;20176;-72
2022/05/30 05:38:54;;;;;;;0.20;0.20;;;24.60;99.90;;;;;;5015237;28;20515;-72
2022/05/30 05:41:21;;;;;;;2.75;0.20;;;27.30;99.90;;;;;;5015253;28;20104;-72
2022/05/30 05:43:47;;;;;;;1.40;0.10;;;25.60;99.90;;;;;;5015313;28;20040;-72
2022/05/30 05:46:18;;;;;;;1.92;0.20;;;24.10;99.90;;;;;;5015028;28;20034;-72
2022/05/30 05:48:44;;;;;;;0.95;0.30;;;26.50;99.90;;;;;;5015148;28;20033;-72
2022/05/30 05:51:10;;;;;;;1.75;0.20;;;26.60;99.90;;;;;;5013756;28;20104;-72
2022/05/30 05:53:36;;;;;;;0.38;0.20;;;29.60;99.90;;;;;;4995458;28;20085;-72
2022/05/30 05:56:12;;;;;;;1.55;0.40;;;29.60;99.90;;;;;;5001952;28;20030;-72
2022/05/30 05:58:37;;;;;;;2.83;0.52;;;31.50;99.90;;;;;;5012819;28;20695;-72
2022/05/30 06:01:12;;;;;;;0.57;0.30;;;27.00;99.90;;;;;;4995005;28;20137;-72
2022/05/30 06:03:37;;;;;;;0.63;0.20;;;23.90;99.90;;;;;;4995096;28;20061;-72
2022/05/30 06:06:04;;;;;;;0.52;0.28;;;22.10;99.90;;;;;;4995155;28;20421;-73
2022/05/30 06:08:30;;;;;;;1.92;0.20;;;20.90;99.90;;;;;;4984547;28;20030;-73
2022/05/30 06:11:05;;;;;;;0.30;0.20;;;20.30;99.90;;;;;;4975490;28;20041;-72
2022/05/30 06:13:31;;;;;;;1.42;0.30;;;19.90;99.90;;;;;;4987191;28;20085;-72
2022/05/30 06:15:56;;;;;;;0.70;0.22;;;19.40;99.90;;;;;;4994937;28;20422;-73
2022/05/30 06:18:22;;;;;;;1.38;0.20;;;19.20;99.90;;;;;;4994931;28;20034;-72
2022/05/30 06:20:47;;;;;;;0.20;0.20;;;19.00;99.90;;;;;;4994604;28;20030;-73
2022/05/30 06:23:12;;;;;;;1.38;0.30;;;19.30;99.90;;;;;;4994833;28;20486;-72
2022/05/30 06:25:38;;;;;;;0.88;0.40;;;23.30;99.90;;;;;;4994887;28;20026;-73
2022/05/30 06:28:04;;;;;;;1.95;0.40;;;24.70;99.90;;;;;;4994679;28;20023;-74
2022/05/30 06:30:29;;;;;;;2.17;0.45;;;26.20;99.90;;;;;;4994527;28;20026;-73
2022/05/30 06:32:55;;;;;;;2.78;0.40;;;23.20;99.90;;;;;;4994533;28;20477;-73
2022/05/30 06:35:20;;;;;;;1.15;0.35;;;20.90;99.90;;;;;;4994449;28;20027;-73
2022/05/30 06:37:46;;;;;;;1.23;0.40;;;19.80;99.90;;;;;;4994551;28;20026;-74
2022/05/30 06:40:13;;;;;;;2.22;0.38;;;18.40;99.90;;;;;;4994317;28;20030;-73
2022/05/30 06:42:38;;;;;;;2.55;0.50;;;17.50;99.90;;;;;;4994781;28;20023;-74
2022/05/30 06:45:04;;;;;;;1.05;0.30;;;17.30;99.90;;;;;;4994445;28;20382;-73
2022/05/30 06:47:30;;;;;;;2.30;0.63;;;17.00;99.90;;;;;;4977218;28;20524;-73
2022/05/30 06:49:55;;;;;;;1.15;0.30;;;17.10;99.90;;;;;;4994549;28;20023;-73
2022/05/30 06:52:21;;;;;;;0.77;0.30;;;17.20;99.90;;;;;;4993981;28;20145;-73
2022/05/30 06:54:46;;;;;;;1.23;0.30;;;16.90;99.90;;;;;;4993463;28;20069;-74
2022/05/30 06:59:56;;;;;;;0.88;0.60;;;17.30;99.90;;;;;;5009051;28;20041;-73
2022/05/30 07:02:22;;;;;;;1.98;0.40;;;17.70;99.90;;;;;;4985990;28;20473;-73
2022/05/30 07:04:47;;;;;;;0.47;0.25;;;17.90;99.90;;;;;;4986374;28;20050;-73
2022/05/30 07:07:13;;;;;;;1.05;0.30;;;18.00;99.90;;;;;;4987955;28;20038;-73
2022/05/30 07:09:39;;;;;;;0.70;0.22;;;18.00;99.90;;;;;;4974432;28;20122;-73
2022/05/30 07:12:06;;;;;;;1.17;0.35;;;18.10;99.90;;;;;;4978931;28;20022;-73
2022/05/30 07:14:32;;;;;;;1.77;0.38;;;19.00;99.90;;;;;;4993934;28;20555;-73
2022/05/30 07:16:58;;;;;;;1.60;0.30;;;18.90;99.90;;;;;;4993746;28;20042;-73
2022/05/30 07:19:24;;;;;;;0.38;0.30;;;18.80;99.90;;;;;;4993825;28;20037;-73
2022/05/30 07:21:50;;;;;;;1.65;0.30;;;20.00;99.90;;;;;;4993631;28;20018;-73
2022/05/30 07:24:15;;;;;;;2.00;0.50;;;20.40;99.90;;;;;;4993636;28;20054;-73
2022/05/30 07:26:41;;;;;;;0.68;0.45;;;21.10;99.90;;;;;;4993621;28;20018;-73
2022/05/30 07:29:08;;;;;;;1.17;0.30;;;21.80;99.90;;;;;;4993422;28;20486;-73
2022/05/30 07:31:33;;;;;;;0.57;0.30;;;21.60;99.90;;;;;;5012853;28;20029;-73
2022/05/30 07:33:59;;;;;;;2.13;0.73;;;21.80;99.90;;;;;;5012715;28;20025;-73
2022/05/30 07:36:29;;;;;;;2.33;0.40;;;21.60;99.90;;;;;;4994089;28;20050;-73
2022/05/30 07:38:55;;;;;;;0.90;0.43;;;22.50;99.90;;;;;;4993533;28;20033;-73
2022/05/30 07:41:23;;;;;;;1.60;0.38;;;23.00;99.90;;;;;;4993475;28;20034;-73
2022/05/30 07:43:49;;;;;;;1.30;0.30;;;23.40;99.90;;;;;;5007487;28;20025;-73
2022/05/30 07:46:16;;;;;;;1.48;0.35;;;23.20;99.90;;;;;;4988105;28;20023;-73
2022/05/30 07:48:42;;;;;;;0.80;0.30;;;23.20;99.90;;;;;;4973951;28;20491;-73
2022/05/30 07:51:10;;;;;;;1.25;0.30;;;24.70;99.90;;;;;;4973863;28;20023;-73
2022/05/30 07:53:37;;;;;;;0.22;0.22;;;24.70;99.90;;;;;;4977077;28;20119;-73
2022/05/30 07:56:06;;;;;;;1.65;0.43;;;24.10;99.90;;;;;;5005668;28;20042;-74
2022/05/30 07:58:31;;;;;;;1.30;0.30;;;25.70;99.90;;;;;;4993226;28;20014;-73
2022/05/30 08:00:57;;;;;;;0.30;0.20;;;26.00;99.90;;;;;;4999954;28;20046;-73
2022/05/30 08:03:25;;;;;;;1.45;0.40;;;29.50;99.90;;;;;;5001775;28;20533;-73
2022/05/30 08:06:04;;;;;;;1.20;0.40;;;29.40;99.90;;;;;;4993283;28;20022;-73
2022/05/30 08:08:30;;;;;;;0.65;0.30;;;29.40;99.90;;;;;;4993147;28;20030;-73
2022/05/30 08:10:55;;;;;;;1.23;0.40;;;32.90;99.90;;;;;;4993107;28;20025;-73
2022/05/30 08:13:21;;;;;;;2.15;0.35;;;34.30;99.90;;;;;;4992997;28;20030;-74
2022/05/30 08:15:46;;;;;;;1.95;0.32;;;32.40;99.90;;;;;;4992942;28;20031;-73
2022/05/30 08:18:17;;;;;;;1.23;0.30;;;31.40;99.90;;;;;;4992912;28;20026;-74
2022/05/30 08:20:44;;;;;;;1.98;0.40;;;30.10;99.90;;;;;;4991987;28;20117;-74
2022/05/30 08:23:10;;;;;;;1.02;0.30;;;30.50;99.90;;;;;;4998697;28;20116;-73
2022/05/30 08:25:37;;;;;;;1.23;0.52;;;25.20;99.90;;;;;;5011849;28;20097;-73
2022/05/30 08:28:03;;;;;;;1.60;0.30;;;23.20;99.90;;;;;;5011521;28;20489;-73
2022/05/30 08:30:28;;;;;;;2.15;0.30;;;22.20;99.90;;;;;;5011846;28;20030;-73
2022/05/30 08:32:54;;;;;;;0.82;0.50;;;19.70;99.90;;;;;;5011644;28;20034;-73
2022/05/30 08:35:20;;;;;;;0.93;0.45;;;18.00;99.90;;;;;;5000668;28;20129;-73
2022/05/30 08:37:46;;;;;;;1.13;0.30;;;17.30;99.90;;;;;;4976339;28;20026;-73
2022/05/30 08:43:37;;;;;;;0.77;0.32;;;16.20;99.90;;;;;;4992073;28;20096;-73
2022/05/30 08:46:39;;;;;;;0.88;0.50;;;16.00;99.90;;;;;;4992123;28;20053;-73
2022/05/30 08:49:28;;;;;;;2.92;0.38;;;15.60;99.90;;;;;;4991930;28;20096;-73
2022/05/30 08:51:53;;;;;;;1.60;0.40;;;15.40;99.90;;;;;;4992004;28;20023;-74
2022/05/30 08:54:55;;;;;;;1.67;0.40;;;15.10;99.90;;;;;;4992051;28;20029;-75
2022/05/30 08:57:29;;;;;;;2.42;0.47;;;14.80;99.90;;;;;;5009430;28;20026;-72
2022/05/30 09:00:08;;;;;;;2.38;0.70;;;14.50;99.90;;;;;;5015195;28;20018;-73
2022/05/30 09:02:56;;;;;;;3.10;0.68;;;14.20;99.90;;;;;;5013431;28;20073;-72
2022/05/30 09:05:30;;;;;;;2.22;0.90;;;14.10;99.90;;;;;;5015330;28;20026;-73
2022/05/30 09:08:01;;;;;;;6.53;0.60;;;14.30;99.90;;;;;;5015319;28;20370;-72
2022/05/30 09:10:35;;;;;;;1.88;0.63;;;14.40;99.90;;;;;;4996217;28;20618;-72
2022/05/30 09:13:15;;;;;;;2.00;0.60;;;14.60;99.90;;;;;;4995571;28;20038;-71
2022/05/30 09:15:42;;;;;;;;;;;15.00;99.90;;;;;;4995818;28;20030;-71
2022/05/30 10:08:56;;;;;;;2.90;0.70;;;21.60;99.90;;;;;;5334739;24;20063;-71
2022/05/30 10:11:27;;;;;;;1.92;0.40;;;23.10;99.90;;;;;;4786549;30;20134;-72
2022/05/30 10:13:54;;;;;;;2.20;0.50;;;22.20;99.90;;;;;;4787251;29;20123;-72
2022/05/30 10:16:33;;;;;;;2.20;0.45;;;20.00;99.90;;;;;;4788790;29;20031;-72
2022/05/30 10:19:05;;;;;;;4.73;0.60;;;18.90;99.90;;;;;;4788620;29;20034;-72
2022/05/30 10:30:15;;;;;;;1.67;0.40;;;19.90;99.90;;;;;;4788607;30;20043;-72
2022/05/30 10:33:17;;;;;;;1.92;0.40;;;22.40;99.90;;;;;;4775963;30;20635;-71
2022/05/30 10:35:49;;;;;;;1.20;0.30;;;20.90;99.90;;;;;;4787178;29;20042;-71
2022/05/30 10:38:33;;;;;;;1.77;0.40;;;20.80;99.90;;;;;;4787900;30;20080;-71
2022/05/30 10:41:04;;;;;;;1.77;0.30;;;24.10;99.90;;;;;;4788064;30;20042;-71
2022/05/30 10:43:48;;;;;;;1.10;0.40;;;22.90;99.90;;;;;;4776467;30;20077;-71
2022/05/30 10:46:27;;;;;;;1.20;0.50;;;23.80;99.90;;;;;;4787773;30;20069;-71
2022/05/30 10:49:04;;;;;;;0.52;0.30;;;22.90;99.90;;;;;;4788274;29;20032;-71
2022/05/30 10:51:50;;;;;;;1.80;0.28;;;21.60;99.90;;;;;;4786628;29;20019;-71
2022/05/30 10:54:22;;;;;;;2.63;0.25;;;22.50;99.90;;;;;;4786587;29;20076;-70
2022/05/30 10:56:50;;;;;;;0.98;0.30;;;22.80;99.90;;;;;;4786421;30;20042;-71
2022/05/30 10:59:34;;;;;;;1.95;0.47;;;23.40;99.90;;;;;;4787048;29;20011;-71
2022/05/30 11:02:08;;;;;;;1.70;0.50;;;23.90;99.90;;;;;;4787088;30;20043;-70
2022/05/30 11:04:52;;;;;;;2.45;0.30;;;24.50;99.90;;;;;;4777823;29;20132;-71
2022/05/30 11:07:33;;;;;;;0.82;0.40;;;27.10;99.90;;;;;;4769047;30;20052;-71
2022/05/30 11:10:20;;;;;;;0.75;0.22;;;25.50;99.90;;;;;;4767802;30;20131;-71
2022/05/30 11:12:55;;;;;;;2.47;0.25;;;22.60;99.90;;;;;;4768989;30;20534;-71
2022/05/30 11:15:29;;;;;;;0.82;0.20;;;21.90;99.90;;;;;;4782304;30;20046;-71
2022/05/30 11:18:01;;;;;;;1.25;0.50;;;20.60;99.90;;;;;;4786943;29;20066;-71
2022/05/30 11:20:36;;;;;;;0.77;0.30;;;20.50;99.90;;;;;;4787495;29;20038;-71
2022/05/30 11:23:06;;;;;;;3.90;0.80;;;20.80;99.90;;;;;;4787394;30;20066;-72
2022/05/30 11:26:02;;;;;;;2.47;0.43;;;20.60;99.90;;;;;;4788018;29;20069;-70
2022/05/30 11:28:33;;;;;;;1.63;0.40;;;20.40;99.90;;;;;;4787790;29;20042;-72
2022/05/30 11:31:26;;;;;;;2.42;0.40;;;20.60;99.90;;;;;;4786717;29;20114;-71
2022/05/30 11:34:10;;;;;;;1.80;0.40;;;20.40;99.90;;;;;;4769965;30;20043;-71
2022/05/30 11:36:38;;;;;;;1.40;0.40;;;20.60;99.90;;;;;;4769988;30;20668;-71
2022/05/30 11:39:26;;;;;;;2.17;0.40;;;21.30;99.90;;;;;;4769762;30;20028;-71
2022/05/30 11:42:31;;;;;;;2.10;0.60;;;21.60;99.90;;;;;;4769882;30;20060;-71
2022/05/30 11:45:16;;;;;;;5.13;0.57;;;20.90;99.90;;;;;;4769843;30;20032;-70
2022/05/30 11:48:18;;;;;;;3.22;0.32;;;21.10;99.90;;;;;;4769578;30;20460;-70
2022/05/30 11:51:16;;;;;;;3.25;0.45;;;20.80;99.90;;;;;;4784189;30;20544;-70
2022/05/30 11:54:12;;;;;;;3.30;0.50;;;20.30;99.90;;;;;;4780743;29;20028;-70
2022/05/30 11:57:01;;;;;;;1.52;0.30;;;20.70;99.90;;;;;;4769320;30;20591;-71
2022/05/30 11:59:52;;;;;;;2.20;0.30;;;21.80;99.90;;;;;;4777770;30;20043;-71
2022/05/30 12:02:34;;;;;;;1.40;0.40;;;21.30;99.90;;;;;;4782248;30;20031;-70
2022/05/30 12:05:21;;;;;;;1.88;0.63;;;20.40;99.90;;;;;;4781539;30;20395;-71
2022/05/30 12:08:20;;;;;;;1.92;0.50;;;19.90;99.90;;;;;;4787543;29;20038;-70
2022/05/30 12:11:28;;;;;;;1.85;0.30;;;20.50;99.90;;;;;;4783160;30;20055;-70
2022/05/30 12:14:12;;;;;;;2.10;0.50;;;20.40;99.90;;;;;;4769508;30;20058;-71
2022/05/30 12:16:37;;;;;;;1.20;0.45;;;20.30;99.90;;;;;;4769458;30;20092;-70
2022/05/30 12:25:01;;;;;;;1.02;0.40;;;21.20;99.90;;;;;;4787591;30;20048;-71
2022/05/30 12:27:26;;;;;;;1.83;0.40;;;20.70;99.90;;;;;;4787263;29;20031;-71
2022/05/30 12:29:53;;;;;;;0.95;0.32;;;22.20;99.90;;;;;;4787095;30;20039;-71
2022/05/30 12:32:21;;;;;;;2.67;0.47;;;21.80;99.90;;;;;;4784657;29;20019;-71
2022/05/30 12:35:32;;;;;;;1.35;0.50;;;22.10;99.90;;;;;;4787292;30;20085;-70
2022/05/30 12:38:07;;;;;;;2.20;0.50;;;22.00;99.90;;;;;;4773290;30;20097;-71
2022/05/30 12:40:39;;;;;;;2.42;0.57;;;21.60;99.90;;;;;;4772882;30;20031;-71
2022/05/30 12:43:23;;;;;;;2.10;0.30;;;21.80;99.90;;;;;;4772763;30;20549;-71
2022/05/30 12:45:49;;;;;;;1.20;0.40;;;21.90;99.90;;;;;;4771630;30;20032;-71
2022/05/30 12:48:19;;;;;;;1.42;0.40;;;22.20;99.90;;;;;;4788879;30;20027;-70
2022/05/30 12:50:51;;;;;;;3.05;0.50;;;22.60;99.90;;;;;;4786298;29;20450;-70
2022/05/30 12:53:19;;;;;;;1.00;0.32;;;22.90;99.90;;;;;;4771961;30;20059;-71
2022/05/30 12:55:50;;;;;;;1.48;0.50;;;22.40;99.90;;;;;;4772822;30;20039;-71
2022/05/30 12:58:29;;;;;;;1.55;0.60;;;22.10;99.90;;;;;;4789471;29;20100;-71
2022/05/30 13:01:18;;;;;;;1.70;0.30;;;22.00;99.90;;;;;;4779039;30;20058;-71
2022/05/30 13:03:46;;;;;;;2.03;0.32;;;22.50;99.90;;;;;;4789686;29;20791;-70
2022/05/30 13:06:22;;;;;;;1.95;0.40;;;22.80;99.90;;;;;;4790555;29;20054;-71
2022/05/30 13:08:50;;;;;;;1.60;0.50;;;22.40;99.90;;;;;;4790377;29;20114;-71
2022/05/30 13:12:00;;;;;;;1.23;0.47;;;21.80;99.90;;;;;;4789143;30;20115;-71
2022/05/30 13:14:48;;;;;;;1.00;0.40;;;22.60;99.90;;;;;;4734529;30;20510;-70
2022/05/30 13:17:16;;;;;;;0.30;0.20;;;22.60;99.90;;;;;;4748463;30;20025;-70
2022/05/30 13:19:59;;;;;;;1.73;0.30;;;23.00;99.90;;;;;;4769725;30;20075;-71
2022/05/30 13:22:35;;;;;;;1.75;0.30;;;22.00;99.90;;;;;;4789352;30;20088;-70
2022/05/30 13:25:02;;;;;;;2.05;0.40;;;22.20;99.90;;;;;;4775744;30;20036;-70
2022/05/30 13:27:29;;;;;;;2.20;0.38;;;22.20;99.90;;;;;;4787415;30;20027;-71
2022/05/30 13:30:00;;;;;;;1.02;0.50;;;22.50;99.90;;;;;;4789759;29;20491;-71
2022/05/30 13:32:25;;;;;;;2.28;0.30;;;22.40;99.90;;;;;;4774297;29;20031;-70
2022/05/30 13:34:58;;;;;;;1.60;0.38;;;21.40;99.90;;;;;;4781557;30;20042;-71
2022/05/30 13:37:30;;;;;;;1.48;0.40;;;21.30;99.90;;;;;;4789228;29;20035;-70
2022/05/30 13:40:04;;;;;;;1.23;0.50;;;21.50;99.90;;;;;;4789202;29;20106;-71
2022/05/30 13:43:05;;;;;;;1.38;0.50;;;21.70;99.90;;;;;;4789964;29;20139;-70
2022/05/30 13:45:36;;;;;;;2.83;0.60;;;21.00;99.90;;;;;;4788522;30;20058;-71
2022/05/30 13:48:11;;;;;;;0.85;0.40;;;21.10;99.90;;;;;;4789731;29;20028;-70
2022/05/30 13:50:58;;;;;;;2.08;0.40;;;21.20;99.90;;;;;;4782163;29;20039;-70
2022/05/30 13:53:28;;;;;;;1.23;0.40;;;21.30;99.90;;;;;;4789697;29;20036;-70
2022/05/30 13:56:01;;;;;;;3.03;0.40;;;21.30;99.90;;;;;;4788855;29;20042;-70
2022/05/30 13:58:30;;;;;;;1.88;0.50;;;21.60;99.90;;;;;;4789267;29;20035;-70
2022/05/30 14:01:02;;;;;;;2.83;1.17;;;22.50;99.90;;;;;;4779865;29;20660;-70
2022/05/30 14:03:28;;;;;;;1.20;0.30;;;21.70;99.90;;;;;;4771493;30;20127;-70
2022/05/30 14:05:54;;;;;;;0.40;0.25;;;21.60;99.90;;;;;;4773052;30;20059;-70
2022/05/30 14:08:30;;;;;;;0.45;0.40;;;21.10;99.90;;;;;;4788662;30;20078;-70
2022/05/30 14:11:01;;;;;;;1.65;0.35;;;20.70;99.90;;;;;;4775114;30;20074;-70
2022/05/30 14:13:34;;;;;;;1.48;0.30;;;20.80;99.90;;;;;;4789098;29;20118;-70
2022/05/30 14:16:03;;;;;;;1.25;0.30;;;20.80;99.90;;;;;;4789237;29;20035;-71
2022/05/30 14:18:45;;;;;;;2.20;0.35;;;21.20;99.90;;;;;;4783813;30;20036;-70
2022/05/30 14:21:21;;;;;;;1.40;0.50;;;21.50;99.90;;;;;;4788385;29;20042;-70
2022/05/30 14:23:52;;;;;;;1.33;0.30;;;21.40;99.90;;;;;;4788268;29;20059;-70
2022/05/30 14:26:32;;;;;;;0.50;0.32;;;21.70;99.90;;;;;;4777860;30;20395;-70
2022/05/30 14:29:05;;;;;;;0.88;0.32;;;21.60;99.90;;;;;;4784584;30;20035;-71